Boiling Springs, South Carolina
Current Conditions -  °F | °C
As of 1:15 PM on Monday 24 Nov 2014 (Local Time) from KSPA Reporting Station
Scattered Clouds Scattered Clouds  
Wind Chill: 72°   Ceiling: Unl
Heat Index: 72°   Visibility: 10mi
Dew Point: 55°   Wind: 10mph
Humidity: 57%   Direction: 230°SW
Pressure: 29.77"   Gusts: 20mph
Location:  35.0564°N, 81.9647°W
Report Text: KSPA 241815Z AUTO 23009G17KT 10SM SCT030 SCT036 22/13 A2977 RMK AO2
Loading
Personal Weather Stations






























Interactive Weather Map New forecast layout! Learn more

10-Day Weather Forecast

Advertisements
Track Severe Weather on mobile